Time;durP1;ratioP1;P1;durP2;ratioP2;P2;SDS_P1;SDS_P2;PMS_P1;PMS_P2;Temp;Humidity;BMP_temperature;BMP_pressure;BME280_temperature;BME280_humidity;BME280_pressure;Samples;Min_cycle;Max_cycle;Signal;HPM_P1;HPM_P2
2022/07/23 00:00:52;;;;;;;7.10;4.15;;;13.90;99.90;;;;;;5012809;28;20061;-72
2022/07/23 00:03:18;;;;;;;6.47;3.63;;;13.80;99.90;;;;;;5029649;28;20065;-73
2022/07/23 00:05:44;;;;;;;9.85;4.80;;;13.80;99.90;;;;;;5030167;28;20046;-72
2022/07/23 00:08:10;;;;;;;6.88;4.35;;;13.80;99.90;;;;;;5025835;28;20033;-72
2022/07/23 00:10:35;;;;;;;8.43;4.57;;;13.80;99.90;;;;;;5049840;28;20045;-73
2022/07/23 00:13:01;;;;;;;9.25;5.07;;;13.70;99.90;;;;;;5048970;28;20049;-72
2022/07/23 00:15:27;;;;;;;8.43;4.68;;;13.70;99.90;;;;;;5048445;28;20116;-72
2022/07/23 00:17:53;;;;;;;7.35;4.43;;;13.70;99.90;;;;;;5013879;28;20132;-72
2022/07/23 00:20:19;;;;;;;7.55;4.50;;;13.60;99.90;;;;;;5029598;28;20076;-72
2022/07/23 00:22:53;;;;;;;6.68;4.70;;;13.70;99.90;;;;;;5029184;28;20048;-72
2022/07/23 00:25:20;;;;;;;10.60;4.70;;;13.60;99.90;;;;;;5065446;28;20512;-72
2022/07/23 00:27:46;;;;;;;5.30;4.18;;;13.60;99.90;;;;;;5036187;28;20488;-73
2022/07/23 00:30:12;;;;;;;7.80;4.57;;;13.50;99.90;;;;;;5040974;28;20098;-72
2022/07/23 00:32:53;;;;;;;6.82;4.15;;;13.50;99.90;;;;;;5051916;28;20407;-72
2022/07/23 00:35:22;;;;;;;6.25;4.70;;;13.50;99.90;;;;;;5033782;28;20072;-72
2022/07/23 00:37:48;;;;;;;6.68;4.47;;;13.50;99.90;;;;;;5018623;28;20058;-72
2022/07/23 00:40:14;;;;;;;10.25;4.95;;;13.40;99.90;;;;;;5042749;28;20056;-72
2022/07/23 00:42:40;;;;;;;8.30;4.65;;;13.40;99.90;;;;;;5028037;28;20071;-72
2022/07/23 00:45:06;;;;;;;9.20;4.70;;;13.40;99.90;;;;;;5042714;28;20038;-72
2022/07/23 00:47:32;;;;;;;8.25;5.28;;;13.40;99.90;;;;;;5021670;28;20042;-73
2022/07/23 00:49:58;;;;;;;8.27;5.25;;;13.40;99.90;;;;;;5032127;28;20060;-72
2022/07/23 00:52:24;;;;;;;7.45;5.20;;;13.40;99.90;;;;;;5030943;28;20058;-73
2022/07/23 00:54:50;;;;;;;8.23;4.72;;;13.40;99.90;;;;;;5032434;28;20191;-72
2022/07/23 00:57:16;;;;;;;5.75;4.63;;;13.40;99.90;;;;;;5015397;28;20041;-72
2022/07/23 00:59:42;;;;;;;9.18;5.15;;;13.30;99.90;;;;;;5033548;28;20404;-72
2022/07/23 01:02:07;;;;;;;9.20;5.15;;;13.30;99.90;;;;;;5032990;28;20498;-72
2022/07/23 01:04:34;;;;;;;8.60;5.22;;;13.30;99.90;;;;;;5032935;28;20049;-73
2022/07/23 01:07:00;;;;;;;11.75;5.30;;;13.30;99.90;;;;;;5017939;28;20041;-73
2022/07/23 01:09:26;;;;;;;7.35;5.45;;;13.40;99.90;;;;;;5031176;28;20038;-73
2022/07/23 01:11:56;;;;;;;8.40;5.13;;;13.40;99.90;;;;;;5031654;28;20049;-73
2022/07/23 01:14:22;;;;;;;10.18;5.30;;;13.40;99.90;;;;;;5034338;28;20420;-73
2022/07/23 01:16:48;;;;;;;9.77;5.30;;;13.40;99.90;;;;;;5039053;28;20062;-73
2022/07/23 01:19:15;;;;;;;9.05;5.70;;;13.40;99.90;;;;;;5041891;28;20550;-72
2022/07/23 01:21:53;;;;;;;8.93;5.72;;;13.40;99.90;;;;;;5037094;28;20497;-73
2022/07/23 01:24:19;;;;;;;7.53;5.80;;;13.40;99.90;;;;;;5050723;28;20140;-72
2022/07/23 01:26:46;;;;;;;8.93;5.50;;;13.40;99.90;;;;;;5036951;28;20563;-73
2022/07/23 01:29:13;;;;;;;8.68;6.15;;;13.40;99.90;;;;;;5040440;28;20129;-72
2022/07/23 01:31:38;;;;;;;8.00;5.90;;;13.30;99.90;;;;;;5052384;28;20110;-73
2022/07/23 01:34:06;;;;;;;9.40;5.88;;;13.30;99.90;;;;;;5052078;28;20045;-73
2022/07/23 01:36:31;;;;;;;10.77;5.80;;;13.30;99.90;;;;;;5025448;28;20500;-74
2022/07/23 01:38:57;;;;;;;13.60;6.40;;;13.30;99.90;;;;;;5035981;28;20053;-73
2022/07/23 01:41:23;;;;;;;9.95;6.20;;;13.20;99.90;;;;;;5051104;28;20061;-73
2022/07/23 01:43:49;;;;;;;7.88;5.90;;;13.10;99.90;;;;;;5037603;28;20326;-73
2022/07/23 01:46:14;;;;;;;8.23;5.88;;;13.10;99.90;;;;;;5022555;28;20053;-73
2022/07/23 01:48:40;;;;;;;8.20;6.10;;;13.10;99.90;;;;;;5033039;28;20399;-72
2022/07/23 01:51:06;;;;;;;10.73;6.00;;;13.20;99.90;;;;;;5036437;28;20061;-73
2022/07/23 01:53:31;;;;;;;12.10;6.32;;;13.10;99.90;;;;;;5050326;28;20531;-73
2022/07/23 01:55:58;;;;;;;9.90;5.57;;;13.20;99.90;;;;;;5039259;28;20423;-73
2022/07/23 01:58:25;;;;;;;9.32;5.82;;;13.20;99.90;;;;;;5034036;28;20128;-72
2022/07/23 02:00:51;;;;;;;9.32;5.43;;;13.30;99.90;;;;;;5052141;28;20646;-73
2022/07/23 02:03:16;;;;;;;13.23;5.63;;;13.30;99.90;;;;;;5051838;28;20116;-73
2022/07/23 02:05:42;;;;;;;6.05;4.63;;;13.40;99.90;;;;;;5050299;28;20041;-72
2022/07/23 02:08:08;;;;;;;6.32;5.20;;;13.40;99.90;;;;;;5034657;28;20048;-72
2022/07/23 02:10:33;;;;;;;7.53;4.80;;;13.40;99.90;;;;;;5050554;28;20395;-73
2022/07/23 02:12:59;;;;;;;10.18;5.10;;;13.50;99.90;;;;;;5039345;28;20045;-73
2022/07/23 02:15:25;;;;;;;8.30;4.95;;;13.50;99.90;;;;;;5040272;28;20124;-73
2022/07/23 02:17:50;;;;;;;8.23;4.97;;;13.50;99.90;;;;;;5027511;28;20119;-73
2022/07/23 02:20:16;;;;;;;9.52;5.43;;;13.50;99.90;;;;;;5051513;28;20132;-72
2022/07/23 02:22:42;;;;;;;9.00;5.07;;;13.50;99.90;;;;;;5051371;28;20052;-73
2022/07/23 02:25:08;;;;;;;9.35;5.47;;;13.50;99.90;;;;;;5035328;28;20049;-73
2022/07/23 02:27:34;;;;;;;9.45;5.45;;;13.50;99.90;;;;;;5015637;28;20052;-73
2022/07/23 02:30:00;;;;;;;8.38;5.88;;;13.50;99.90;;;;;;5041770;28;20053;-73
2022/07/23 02:32:26;;;;;;;11.48;5.55;;;13.50;99.90;;;;;;5030890;28;20448;-72
2022/07/23 02:34:52;;;;;;;11.68;5.63;;;13.40;99.90;;;;;;5031160;28;20129;-73
2022/07/23 02:37:18;;;;;;;9.00;6.05;;;13.50;99.90;;;;;;5015518;28;20404;-73
2022/07/23 02:39:44;;;;;;;7.95;5.60;;;13.40;99.90;;;;;;5031025;28;20128;-73
2022/07/23 02:42:09;;;;;;;9.95;5.55;;;13.50;99.90;;;;;;5030567;28;20077;-72
2022/07/23 02:44:35;;;;;;;9.98;6.03;;;13.40;99.90;;;;;;5051370;28;20041;-72
2022/07/23 02:47:01;;;;;;;7.65;5.65;;;13.40;99.90;;;;;;5022248;28;20049;-72
2022/07/23 02:49:27;;;;;;;13.65;7.07;;;13.40;99.90;;;;;;5035502;28;20056;-73
2022/07/23 02:51:53;;;;;;;9.93;5.90;;;13.40;99.90;;;;;;5040598;28;20057;-73
2022/07/23 02:54:19;;;;;;;9.82;6.43;;;13.40;99.90;;;;;;5034878;28;20049;-73
2022/07/23 02:56:45;;;;;;;9.30;6.18;;;13.40;99.90;;;;;;5031276;28;20124;-74
2022/07/23 02:59:11;;;;;;;16.35;6.63;;;13.30;99.90;;;;;;5043581;28;20205;-72
2022/07/23 03:01:37;;;;;;;8.18;6.32;;;13.30;99.90;;;;;;5042325;28;20133;-73
2022/07/23 03:04:03;;;;;;;9.15;6.65;;;13.30;99.90;;;;;;5048928;28;20056;-73
2022/07/23 03:06:28;;;;;;;9.15;5.68;;;13.40;99.90;;;;;;5025659;28;20473;-73
2022/07/23 03:08:54;;;;;;;10.52;6.70;;;13.30;99.90;;;;;;5045619;28;20044;-73
2022/07/23 03:11:20;;;;;;;12.07;6.40;;;13.30;99.90;;;;;;5051061;28;20182;-73
2022/07/23 03:13:45;;;;;;;12.02;6.57;;;13.30;99.90;;;;;;5049926;28;20094;-73
2022/07/23 03:16:11;;;;;;;7.68;6.30;;;13.30;99.90;;;;;;5042163;28;20045;-73
2022/07/23 03:18:37;;;;;;;9.90;6.40;;;13.40;99.90;;;;;;5012527;28;20057;-73
2022/07/23 03:21:02;;;;;;;10.57;6.43;;;13.40;99.90;;;;;;5043412;28;20738;-73
2022/07/23 03:23:28;;;;;;;9.60;6.18;;;13.40;99.90;;;;;;5032955;28;20072;-73
2022/07/23 03:25:54;;;;;;;7.68;6.57;;;13.40;99.90;;;;;;5045706;28;20049;-73
2022/07/23 03:28:19;;;;;;;9.68;6.90;;;13.30;99.90;;;;;;5031160;28;20037;-73
2022/07/23 03:30:48;;;;;;;10.65;6.30;;;13.40;99.90;;;;;;5049177;28;20080;-73
2022/07/23 03:33:16;;;;;;;9.55;6.70;;;13.50;99.90;;;;;;5049900;28;20072;-73
2022/07/23 03:35:42;;;;;;;8.63;6.75;;;13.40;99.90;;;;;;5049032;28;20064;-73
2022/07/23 03:38:08;;;;;;;11.45;6.95;;;13.40;99.90;;;;;;5033641;28;20408;-73
2022/07/23 03:40:34;;;;;;;9.90;6.43;;;13.50;99.90;;;;;;5049223;28;20060;-74
2022/07/23 03:42:59;;;;;;;9.13;6.50;;;13.40;99.90;;;;;;5040651;28;20519;-74
2022/07/23 03:45:25;;;;;;;9.50;6.50;;;13.50;99.90;;;;;;5039245;28;20040;-73
2022/07/23 03:47:51;;;;;;;12.02;6.78;;;13.50;99.90;;;;;;5016575;28;20052;-72
2022/07/23 03:50:17;;;;;;;10.70;6.13;;;13.40;99.90;;;;;;5030178;28;20057;-73
2022/07/23 03:52:42;;;;;;;11.82;6.20;;;13.40;99.90;;;;;;5029766;28;20095;-72
2022/07/23 03:55:08;;;;;;;9.77;6.30;;;13.40;99.90;;;;;;5030388;28;20077;-72
2022/07/23 03:57:34;;;;;;;10.43;6.40;;;13.40;99.90;;;;;;5018241;28;20048;-72
2022/07/23 04:00:00;;;;;;;9.57;5.50;;;13.40;99.90;;;;;;5049091;28;20084;-72
2022/07/23 04:02:25;;;;;;;11.35;6.13;;;13.40;99.90;;;;;;5044199;28;20144;-73
2022/07/23 04:04:51;;;;;;;9.32;5.90;;;13.40;99.90;;;;;;5030600;28;20037;-72
2022/07/23 04:07:19;;;;;;;10.38;6.40;;;13.40;99.90;;;;;;5014121;28;20088;-73
2022/07/23 04:09:45;;;;;;;10.70;6.10;;;13.40;99.90;;;;;;5028358;28;20053;-73
2022/07/23 04:12:11;;;;;;;10.25;6.55;;;13.40;99.90;;;;;;5027983;28;20107;-73
2022/07/23 04:14:36;;;;;;;7.10;5.63;;;13.40;99.90;;;;;;5036115;28;20078;-72
2022/07/23 04:17:02;;;;;;;9.90;6.20;;;13.40;99.90;;;;;;5022259;28;20588;-73
2022/07/23 04:19:30;;;;;;;10.15;5.80;;;13.40;99.90;;;;;;5048937;28;20049;-73
2022/07/23 04:21:56;;;;;;;8.63;5.63;;;13.40;99.90;;;;;;5049163;28;20053;-73
2022/07/23 04:24:22;;;;;;;9.68;6.35;;;13.40;99.90;;;;;;5041871;28;20044;-73
2022/07/23 04:26:47;;;;;;;10.40;5.60;;;13.40;99.90;;;;;;5014720;28;20456;-73
2022/07/23 04:29:13;;;;;;;10.02;6.40;;;13.40;99.90;;;;;;5029501;28;20046;-74
2022/07/23 04:31:39;;;;;;;9.45;6.07;;;13.40;99.90;;;;;;5058704;28;20406;-73
2022/07/23 04:34:04;;;;;;;11.27;6.00;;;13.40;99.90;;;;;;5028660;28;20447;-73
2022/07/23 04:36:30;;;;;;;9.63;6.22;;;13.40;99.90;;;;;;5030763;28;20053;-74
2022/07/23 04:38:56;;;;;;;14.68;6.15;;;13.40;99.90;;;;;;5028001;28;20504;-73
2022/07/23 04:41:21;;;;;;;10.85;5.75;;;13.50;99.90;;;;;;5035137;28;20077;-73
2022/07/23 04:43:47;;;;;;;8.43;5.60;;;13.40;99.90;;;;;;5035996;28;20055;-74
2022/07/23 04:46:13;;;;;;;8.60;5.45;;;13.50;99.90;;;;;;5032678;28;20125;-75
2022/07/23 04:48:39;;;;;;;9.23;5.45;;;13.50;99.90;;;;;;5022060;28;20048;-73
2022/07/23 04:51:05;;;;;;;9.45;5.20;;;13.60;99.90;;;;;;5029331;28;20107;-75
2022/07/23 04:53:31;;;;;;;9.98;5.47;;;13.60;99.90;;;;;;5027774;28;20041;-73
2022/07/23 04:55:57;;;;;;;8.82;5.32;;;13.60;99.90;;;;;;5030069;28;20041;-74
2022/07/23 04:58:23;;;;;;;9.00;5.28;;;13.50;99.90;;;;;;5013209;28;20872;-73
2022/07/23 05:00:49;;;;;;;7.60;5.20;;;13.60;99.90;;;;;;5028879;28;20053;-73
2022/07/23 05:03:14;;;;;;;12.13;5.30;;;13.50;99.90;;;;;;5045154;28;20049;-74
2022/07/23 05:05:40;;;;;;;9.50;4.90;;;13.50;99.90;;;;;;5035631;28;20052;-73
2022/07/23 05:08:06;;;;;;;7.95;5.20;;;13.50;99.90;;;;;;5021322;28;20034;-75
2022/07/23 05:10:32;;;;;;;8.65;5.32;;;13.60;99.90;;;;;;5030640;28;20060;-74
2022/07/23 05:12:57;;;;;;;10.35;5.22;;;13.50;99.90;;;;;;5031252;28;20092;-74
2022/07/23 05:15:23;;;;;;;6.75;5.32;;;13.50;99.90;;;;;;5050495;28;20045;-73
2022/07/23 05:17:49;;;;;;;8.68;4.90;;;13.50;99.90;;;;;;5015458;28;20050;-74
2022/07/23 05:20:14;;;;;;;6.78;4.88;;;13.50;99.90;;;;;;5036017;28;20075;-74
2022/07/23 05:22:41;;;;;;;6.57;4.32;;;13.60;99.90;;;;;;5039869;28;20045;-74
2022/07/23 05:25:07;;;;;;;8.43;4.63;;;13.70;99.90;;;;;;5039006;28;20401;-73
2022/07/23 05:27:33;;;;;;;8.48;4.65;;;13.80;99.90;;;;;;5028144;28;20412;-73
2022/07/23 05:29:58;;;;;;;9.20;4.40;;;13.90;99.90;;;;;;5038887;28;20045;-74
2022/07/23 05:32:24;;;;;;;6.88;4.05;;;14.00;99.90;;;;;;5040172;28;20056;-73
2022/07/23 05:34:50;;;;;;;7.88;4.53;;;14.10;99.90;;;;;;5032658;28;20042;-73
2022/07/23 05:37:16;;;;;;;9.60;4.32;;;14.10;99.90;;;;;;5017207;28;20140;-75
2022/07/23 05:39:42;;;;;;;5.25;3.75;;;14.10;99.90;;;;;;5052460;28;20041;-74
2022/07/23 05:42:08;;;;;;;8.05;3.80;;;14.10;99.90;;;;;;5051057;28;20068;-73
2022/07/23 05:44:34;;;;;;;6.95;4.15;;;14.10;99.90;;;;;;5038291;28;20047;-74
2022/07/23 05:47:00;;;;;;;6.13;3.90;;;14.10;99.90;;;;;;5024918;28;20041;-74
2022/07/23 05:49:25;;;;;;;7.95;4.13;;;14.20;99.90;;;;;;5050008;28;20052;-73
2022/07/23 05:51:51;;;;;;;6.30;3.50;;;14.10;99.90;;;;;;5049217;28;20124;-74
2022/07/23 05:54:17;;;;;;;5.50;3.90;;;14.10;99.90;;;;;;5051276;28;20041;-74
2022/07/23 05:56:43;;;;;;;7.50;3.80;;;14.20;99.90;;;;;;5009845;28;20618;-73
2022/07/23 05:59:09;;;;;;;8.30;3.47;;;14.20;99.90;;;;;;5043119;28;20084;-74
2022/07/23 06:01:34;;;;;;;7.90;3.95;;;14.30;99.90;;;;;;5038178;28;20474;-74
2022/07/23 06:04:00;;;;;;;5.97;3.35;;;14.30;99.90;;;;;;5031554;28;20072;-74
2022/07/23 06:06:26;;;;;;;7.13;3.45;;;14.30;99.90;;;;;;5020056;28;20519;-74
2022/07/23 06:08:51;;;;;;;4.60;3.53;;;14.40;99.90;;;;;;5028702;28;20055;-73
2022/07/23 06:11:17;;;;;;;7.22;3.33;;;14.40;99.90;;;;;;5039335;28;20420;-73
2022/07/23 06:13:43;;;;;;;5.38;3.20;;;14.50;99.90;;;;;;5035238;28;20148;-74
2022/07/23 06:16:08;;;;;;;7.68;3.28;;;14.50;99.90;;;;;;5034675;28;20150;-75
2022/07/23 06:18:34;;;;;;;7.15;2.58;;;14.60;99.90;;;;;;5029465;28;20052;-74
2022/07/23 06:21:00;;;;;;;4.10;2.58;;;14.80;99.90;;;;;;5037945;28;20046;-73
2022/07/23 06:23:26;;;;;;;6.13;2.60;;;14.90;99.90;;;;;;5035761;28;20120;-74
2022/07/23 06:25:51;;;;;;;5.25;2.45;;;14.90;99.90;;;;;;5038392;28;20394;-73
2022/07/23 06:28:17;;;;;;;5.05;2.20;;;15.00;99.90;;;;;;5025665;28;20050;-73
2022/07/23 06:30:43;;;;;;;5.90;2.10;;;15.00;99.90;;;;;;5044434;28;20041;-73
2022/07/23 06:33:09;;;;;;;4.63;2.10;;;15.20;99.90;;;;;;5034801;28;20080;-73
2022/07/23 06:35:35;;;;;;;3.83;1.85;;;15.30;99.90;;;;;;5038087;28;20065;-73
2022/07/23 06:38:00;;;;;;;2.95;1.60;;;15.50;99.90;;;;;;5022718;28;20067;-73
2022/07/23 06:40:26;;;;;;;2.30;1.50;;;15.60;99.90;;;;;;5037990;28;20452;-73
2022/07/23 06:42:52;;;;;;;9.48;1.30;;;16.10;99.90;;;;;;5035822;28;20049;-74
2022/07/23 06:45:18;;;;;;;1.63;0.90;;;16.00;99.90;;;;;;5037467;28;20146;-73
2022/07/23 06:47:44;;;;;;;2.67;0.90;;;16.10;99.90;;;;;;5019789;28;20455;-73
2022/07/23 06:50:10;;;;;;;4.15;0.57;;;16.10;99.90;;;;;;5037062;28;20145;-73
2022/07/23 06:52:35;;;;;;;1.50;0.32;;;16.50;99.90;;;;;;5043010;28;20087;-73
2022/07/23 06:55:01;;;;;;;2.08;0.30;;;16.40;99.90;;;;;;5059632;28;20057;-73
2022/07/23 06:57:27;;;;;;;3.33;0.30;;;16.90;99.90;;;;;;5019367;28;20489;-72
2022/07/23 06:59:53;;;;;;;1.50;0.30;;;17.00;99.90;;;;;;5036748;28;20492;-72
2022/07/23 07:02:18;;;;;;;1.83;0.22;;;16.90;99.90;;;;;;5040523;28;20068;-73
2022/07/23 07:04:45;;;;;;;3.15;0.35;;;16.90;99.90;;;;;;5036718;28;20033;-74
2022/07/23 07:07:11;;;;;;;1.88;0.20;;;17.00;99.90;;;;;;5020115;28;20365;-73
2022/07/23 07:09:37;;;;;;;2.38;0.20;;;16.70;99.90;;;;;;5037181;28;20163;-74
2022/07/23 07:12:04;;;;;;;2.03;0.10;;;16.80;99.90;;;;;;5034202;28;20506;-74
2022/07/23 07:14:29;;;;;;;1.38;0.20;;;16.80;99.90;;;;;;5039815;28;20496;-74
2022/07/23 07:16:55;;;;;;;2.15;0.30;;;16.70;99.90;;;;;;5021439;28;20040;-73
2022/07/23 07:19:21;;;;;;;3.00;0.30;;;16.70;99.90;;;;;;5037143;28;20042;-73
2022/07/23 07:21:47;;;;;;;1.23;0.30;;;16.90;99.90;;;;;;5036530;28;20045;-74
2022/07/23 07:24:12;;;;;;;1.30;0.30;;;16.90;99.90;;;;;;5038110;28;20397;-73
2022/07/23 07:26:39;;;;;;;2.50;0.20;;;16.90;99.90;;;;;;5022395;28;20389;-74
2022/07/23 07:29:05;;;;;;;0.90;0.10;;;16.90;99.90;;;;;;5028556;28;20045;-74
2022/07/23 07:31:31;;;;;;;1.80;0.30;;;16.90;99.90;;;;;;5049361;28;20056;-75
2022/07/23 07:33:58;;;;;;;0.90;0.22;;;16.80;99.90;;;;;;5049546;28;20045;-74
2022/07/23 07:36:23;;;;;;;2.22;0.40;;;16.70;99.90;;;;;;5026120;28;20048;-74
2022/07/23 07:38:49;;;;;;;1.42;0.20;;;16.70;99.90;;;;;;5037796;28;20053;-74
2022/07/23 07:41:15;;;;;;;1.67;0.30;;;16.70;99.90;;;;;;5046424;28;20041;-73
2022/07/23 07:43:41;;;;;;;1.00;0.38;;;16.80;99.90;;;;;;5038199;28;20044;-73
2022/07/23 07:46:10;;;;;;;0.82;0.20;;;17.00;99.90;;;;;;5027666;28;20049;-74
2022/07/23 07:48:37;;;;;;;1.30;0.17;;;17.00;99.90;;;;;;5022226;28;20099;-74
2022/07/23 07:51:04;;;;;;;2.70;0.30;;;17.10;99.90;;;;;;5032557;28;20575;-74
2022/07/23 07:53:30;;;;;;;2.38;0.20;;;17.10;99.90;;;;;;5034330;28;20136;-74
2022/07/23 07:55:55;;;;;;;2.58;0.40;;;17.10;99.90;;;;;;5041995;28;20120;-75
2022/07/23 07:58:21;;;;;;;1.08;0.20;;;17.20;99.90;;;;;;5029470;28;20049;-73
2022/07/23 08:00:47;;;;;;;2.38;0.20;;;17.20;99.90;;;;;;5045246;28;20061;-74
2022/07/23 08:03:12;;;;;;;0.73;0.13;;;17.20;99.90;;;;;;5045731;28;20052;-74
2022/07/23 08:05:38;;;;;;;1.55;0.28;;;17.30;99.90;;;;;;5041933;28;20075;-74
2022/07/23 08:08:04;;;;;;;1.38;0.20;;;17.50;99.90;;;;;;5029647;28;20072;-74
2022/07/23 08:10:31;;;;;;;2.80;0.20;;;17.50;99.90;;;;;;5028559;28;20119;-76
2022/07/23 08:12:57;;;;;;;1.52;0.30;;;17.50;99.90;;;;;;5043961;28;20209;-73
2022/07/23 08:15:25;;;;;;;1.98;0.30;;;17.30;99.90;;;;;;5045334;28;20056;-74
2022/07/23 08:17:51;;;;;;;0.43;0.05;;;17.20;99.90;;;;;;5024248;28;20188;-74
2022/07/23 08:20:19;;;;;;;1.67;0.30;;;17.30;99.90;;;;;;5037674;28;20552;-74
2022/07/23 08:22:53;;;;;;;1.75;0.40;;;17.20;99.90;;;;;;5031892;28;20033;-75
2022/07/23 08:25:33;;;;;;;4.53;0.45;;;17.20;99.90;;;;;;5032711;28;20550;-74
2022/07/23 08:28:00;;;;;;;1.98;0.30;;;17.20;99.90;;;;;;5011496;28;20511;-74
2022/07/23 08:30:26;;;;;;;1.55;0.30;;;17.40;99.90;;;;;;5042769;28;20121;-74
2022/07/23 08:33:00;;;;;;;1.75;0.30;;;17.40;99.90;;;;;;5042157;28;20052;-74
2022/07/23 08:35:30;;;;;;;0.82;0.20;;;17.40;99.90;;;;;;5032061;28;20796;-73
2022/07/23 08:37:58;;;;;;;4.57;0.40;;;17.40;99.90;;;;;;5017356;28;20062;-74
2022/07/23 08:40:27;;;;;;;2.80;0.20;;;17.50;99.90;;;;;;5040735;28;20049;-73
2022/07/23 08:42:53;;;;;;;2.17;0.40;;;17.60;99.90;;;;;;5041527;28;20045;-75
2022/07/23 08:45:21;;;;;;;2.53;0.30;;;17.70;99.90;;;;;;5034178;28;20053;-74
2022/07/23 08:47:51;;;;;;;1.17;0.28;;;17.70;99.90;;;;;;5028385;28;20064;-74
2022/07/23 08:50:17;;;;;;;2.63;0.30;;;17.50;99.90;;;;;;5041338;28;20453;-75
2022/07/23 08:52:43;;;;;;;1.45;0.30;;;17.50;99.90;;;;;;5035270;28;20045;-74
2022/07/23 08:55:09;;;;;;;3.15;0.50;;;17.40;99.90;;;;;;5037622;28;20049;-75
2022/07/23 08:57:35;;;;;;;1.17;0.20;;;17.20;99.90;;;;;;5018807;28;20049;-73
2022/07/23 09:00:02;;;;;;;2.72;0.30;;;17.30;99.90;;;;;;5042243;28;20466;-74
2022/07/23 09:02:28;;;;;;;1.77;0.38;;;17.30;99.90;;;;;;5047110;28;20156;-73
2022/07/23 09:04:53;;;;;;;4.25;0.50;;;17.20;99.90;;;;;;5039889;28;20578;-74
2022/07/23 09:07:19;;;;;;;2.95;0.35;;;17.30;99.90;;;;;;5020041;28;20542;-75
2022/07/23 09:09:45;;;;;;;2.15;0.25;;;17.30;99.90;;;;;;5034959;28;20506;-74
2022/07/23 09:12:10;;;;;;;2.15;0.20;;;17.30;99.90;;;;;;5040973;28;20045;-74
2022/07/23 09:14:43;;;;;;;2.72;0.47;;;17.50;99.90;;;;;;5046508;28;20044;-73
2022/07/23 09:17:18;;;;;;;1.85;0.52;;;17.60;99.90;;;;;;5019796;28;20057;-74
2022/07/23 09:19:45;;;;;;;1.63;0.25;;;17.50;99.90;;;;;;5049428;28;20057;-74
2022/07/23 09:22:22;;;;;;;2.15;0.40;;;17.40;99.90;;;;;;5043977;28;20048;-74
2022/07/23 09:25:08;;;;;;;3.90;0.68;;;17.60;99.90;;;;;;5037262;28;20044;-74
2022/07/23 09:27:54;;;;;;;3.20;0.40;;;17.40;99.90;;;;;;5032898;28;20510;-75
2022/07/23 09:30:22;;;;;;;1.08;0.20;;;17.50;99.90;;;;;;5048122;28;20492;-74
2022/07/23 09:33:08;;;;;;;3.55;0.50;;;17.50;99.90;;;;;;5048130;28;20493;-74
2022/07/23 09:35:49;;;;;;;3.63;0.32;;;17.40;99.90;;;;;;5049142;28;20159;-74
2022/07/23 09:38:16;;;;;;;2.33;0.45;;;17.50;99.90;;;;;;5033572;28;20427;-73
2022/07/23 09:40:41;;;;;;;2.17;0.40;;;17.60;99.90;;;;;;5047142;28;20079;-73
2022/07/23 09:43:07;;;;;;;2.28;0.40;;;17.50;99.90;;;;;;5047966;28;20084;-73
2022/07/23 09:45:33;;;;;;;3.85;0.50;;;17.40;99.90;;;;;;5042749;28;20094;-74
2022/07/23 09:48:15;;;;;;;5.00;0.60;;;17.60;99.90;;;;;;5026223;28;20045;-74
2022/07/23 09:50:44;;;;;;;6.97;0.47;;;17.60;99.90;;;;;;5041715;28;20064;-74
2022/07/23 09:53:24;;;;;;;2.92;0.52;;;17.70;99.90;;;;;;5045741;28;20060;-74
2022/07/23 09:55:54;;;;;;;3.00;0.63;;;17.60;99.90;;;;;;5048210;28;20123;-75
2022/07/23 09:58:21;;;;;;;1.38;0.35;;;17.70;99.90;;;;;;5030478;28;20041;-73
2022/07/23 10:00:49;;;;;;;2.83;0.70;;;17.70;99.90;;;;;;5035800;28;20050;-74
2022/07/23 10:03:15;;;;;;;5.20;0.65;;;17.60;99.90;;;;;;5039106;28;20496;-74
2022/07/23 10:05:43;;;;;;;2.63;0.70;;;17.70;99.90;;;;;;5045349;28;20048;-74
2022/07/23 10:08:11;;;;;;;1.77;0.40;;;17.90;99.90;;;;;;5032103;28;20049;-74
2022/07/23 10:10:39;;;;;;;2.25;0.40;;;17.90;99.90;;;;;;5037145;28;20069;-73
2022/07/23 10:15:47;;;;;;;1.50;0.47;;;17.50;99.90;;;;;;5020151;28;20180;-75
2022/07/23 10:18:13;;;;;;;3.83;0.52;;;17.50;99.90;;;;;;5025807;28;20057;-74
2022/07/23 10:20:40;;;;;;;1.70;0.60;;;17.30;99.90;;;;;;5020991;28;20049;-74
2022/07/23 10:23:15;;;;;;;3.05;0.50;;;17.20;99.90;;;;;;5035403;28;20057;-74
2022/07/23 10:26:06;;;;;;;2.13;0.47;;;17.40;99.90;;;;;;5040914;28;20099;-75
2022/07/23 10:28:58;;;;;;;;;;;17.60;99.90;;;;;;5029282;28;20055;-75
2022/07/23 10:32:02;;;;;;;2.08;0.73;;;17.60;99.90;;;;;;5045036;28;20432;-75
2022/07/23 10:34:37;;;;;;;2.00;0.50;;;17.70;99.90;;;;;;5044001;28;20059;-74
2022/07/23 10:37:24;;;;;;;3.20;0.80;;;17.80;99.90;;;;;;5016128;28;20545;-74
2022/07/23 10:40:13;;;;;;;3.53;0.70;;;17.90;99.90;;;;;;5046579;28;20036;-74
2022/07/23 10:42:40;;;;;;;2.90;0.73;;;18.20;99.90;;;;;;5028367;28;20045;-74
2022/07/23 10:45:29;;;;;;;2.08;0.68;;;18.10;99.90;;;;;;5034296;28;20041;-75
2022/07/23 10:47:56;;;;;;;1.75;0.80;;;18.00;99.90;;;;;;5025824;28;20069;-73
2022/07/23 10:50:34;;;;;;;2.75;0.57;;;17.90;99.90;;;;;;5051831;28;20071;-74
2022/07/23 10:53:06;;;;;;;5.55;0.57;;;18.20;99.90;;;;;;5047339;28;20044;-74
2022/07/23 10:55:32;;;;;;;3.38;0.82;;;18.10;99.90;;;;;;5041228;28;20447;-75
2022/07/23 10:57:58;;;;;;;2.47;0.80;;;18.30;99.90;;;;;;5030653;28;20583;-73
2022/07/23 11:00:42;;;;;;;2.72;0.95;;;18.30;99.90;;;;;;5041060;28;20045;-75
2022/07/23 11:03:33;;;;;;;2.72;0.57;;;18.10;99.90;;;;;;5045104;28;20045;-73
2022/07/23 11:05:59;;;;;;;2.88;0.70;;;17.90;99.90;;;;;;5027654;28;20063;-74
2022/07/23 11:08:24;;;;;;;5.00;0.70;;;17.80;99.90;;;;;;5029878;28;20095;-74
2022/07/23 11:11:07;;;;;;;2.33;0.82;;;18.10;99.90;;;;;;5046855;28;20047;-74
2022/07/23 11:13:41;;;;;;;1.70;0.60;;;18.20;99.90;;;;;;5045600;28;20045;-74
2022/07/23 11:16:16;;;;;;;1.73;0.52;;;18.20;99.90;;;;;;5041577;28;20128;-78
2022/07/23 11:18:42;;;;;;;4.05;0.50;;;18.40;99.90;;;;;;5040476;28;20276;-73
2022/07/23 11:21:23;;;;;;;2.78;0.50;;;18.40;99.90;;;;;;5046681;28;20567;-74
2022/07/23 11:24:08;;;;;;;1.13;0.45;;;18.60;99.90;;;;;;5041570;28;20056;-72
2022/07/23 11:26:40;;;;;;;4.60;0.55;;;18.70;99.90;;;;;;5023078;28;20501;-74
2022/07/23 11:29:25;;;;;;;2.90;0.57;;;18.90;99.90;;;;;;5039479;28;20048;-74
2022/07/23 11:32:01;;;;;;;2.10;0.30;;;19.00;99.90;;;;;;5044426;28;20427;-74
2022/07/23 11:34:41;;;;;;;2.42;0.45;;;19.10;99.90;;;;;;5045123;28;20753;-75
2022/07/23 11:37:12;;;;;;;2.03;0.68;;;19.20;99.90;;;;;;5017504;28;20053;-75
2022/07/23 11:39:38;;;;;;;3.10;0.52;;;18.60;99.90;;;;;;5029975;28;20488;-74
2022/07/23 11:42:06;;;;;;;3.05;0.63;;;18.60;99.90;;;;;;5036232;28;20056;-73
2022/07/23 11:44:35;;;;;;;3.58;0.60;;;18.70;99.90;;;;;;5041780;28;20496;-72
2022/07/23 11:47:03;;;;;;;1.90;0.70;;;18.90;99.90;;;;;;5027192;28;20128;-73
2022/07/23 11:49:29;;;;;;;1.85;0.60;;;19.10;99.90;;;;;;5036509;28;20470;-74
2022/07/23 11:52:14;;;;;;;1.85;0.50;;;18.90;99.90;;;;;;5040251;28;20064;-74
2022/07/23 11:54:55;;;;;;;2.75;0.50;;;18.90;99.90;;;;;;5027699;28;20053;-74
2022/07/23 11:57:25;;;;;;;1.00;0.30;;;18.90;99.90;;;;;;5031126;28;20348;-74
2022/07/23 11:59:57;;;;;;;3.55;0.40;;;19.10;99.90;;;;;;5031883;28;20124;-73
2022/07/23 12:02:23;;;;;;;1.17;0.50;;;19.20;99.90;;;;;;5040972;28;20048;-73
2022/07/23 12:04:51;;;;;;;4.28;0.60;;;19.30;99.90;;;;;;5041251;28;20580;-73
2022/07/23 12:07:35;;;;;;;3.13;0.60;;;19.50;99.90;;;;;;5013828;28;20606;-74
2022/07/23 12:10:03;;;;;;;3.40;0.50;;;19.40;99.90;;;;;;5037398;28;20059;-75
2022/07/23 12:12:42;;;;;;;2.33;0.57;;;19.50;99.90;;;;;;5042749;28;20185;-74
2022/07/23 12:15:10;;;;;;;0.95;0.45;;;19.70;99.90;;;;;;5049027;28;20046;-74
2022/07/23 12:17:38;;;;;;;2.75;0.60;;;19.50;99.90;;;;;;5022785;28;20041;-73
2022/07/23 12:20:06;;;;;;;0.93;0.50;;;19.40;99.90;;;;;;5031827;28;20049;-74
2022/07/23 12:22:44;;;;;;;4.38;0.80;;;19.60;99.90;;;;;;5031963;28;20072;-74
2022/07/23 12:25:15;;;;;;;2.67;0.52;;;19.60;99.90;;;;;;5039980;28;20052;-72
2022/07/23 12:27:42;;;;;;;1.23;0.45;;;19.50;99.90;;;;;;5031651;28;20052;-75
2022/07/23 12:30:21;;;;;;;2.50;0.45;;;19.70;99.90;;;;;;5035214;28;20060;-73
2022/07/23 12:32:50;;;;;;;2.90;0.40;;;19.60;99.90;;;;;;5047738;28;20041;-74
2022/07/23 12:35:17;;;;;;;1.42;0.50;;;19.70;99.90;;;;;;5042322;28;20049;-74
2022/07/23 12:37:45;;;;;;;2.75;0.60;;;19.50;99.90;;;;;;5018215;28;20046;-75
2022/07/23 12:40:30;;;;;;;2.65;0.50;;;19.50;99.90;;;;;;5031839;28;20053;-75
2022/07/23 12:42:59;;;;;;;1.23;0.50;;;19.80;99.90;;;;;;5041630;28;20096;-75
2022/07/23 12:45:27;;;;;;;1.77;0.40;;;19.70;99.90;;;;;;5042609;28;20048;-72
2022/07/23 12:48:03;;;;;;;1.45;0.47;;;19.90;99.90;;;;;;5018580;28;20485;-74
2022/07/23 12:50:41;;;;;;;2.60;0.70;;;20.00;99.90;;;;;;5033967;28;20045;-72
2022/07/23 12:53:33;;;;;;;4.68;0.75;;;20.00;99.90;;;;;;5032656;28;20500;-74